sensor_id;sensor_type;location;lat;lon;timestamp;temperature;humidity
38973;DHT22;25333;50.762;4.470;2022-12-07T00:01:19;5.20;99.90
38973;DHT22;25333;50.762;4.470;2022-12-07T00:03:47;5.30;99.90
38973;DHT22;25333;50.762;4.470;2022-12-07T00:06:14;5.30;99.90
38973;DHT22;25333;50.762;4.470;2022-12-07T00:08:40;5.30;99.90
38973;DHT22;25333;50.762;4.470;2022-12-07T00:13:36;5.30;99.90
38973;DHT22;25333;50.762;4.470;2022-12-07T00:16:05;5.30;99.90
38973;DHT22;25333;50.762;4.470;2022-12-07T00:18:31;5.30;99.90
38973;DHT22;25333;50.762;4.470;2022-12-07T00:21:12;5.30;99.90
38973;DHT22;25333;50.762;4.470;2022-12-07T00:23:39;5.30;99.90
38973;DHT22;25333;50.762;4.470;2022-12-07T00:26:11;5.20;99.90
38973;DHT22;25333;50.762;4.470;2022-12-07T00:28:38;5.20;99.90
38973;DHT22;25333;50.762;4.470;2022-12-07T00:31:06;5.10;99.90
38973;DHT22;25333;50.762;4.470;2022-12-07T00:33:33;5.10;99.90
38973;DHT22;25333;50.762;4.470;2022-12-07T00:35:59;5.00;99.90
38973;DHT22;25333;50.762;4.470;2022-12-07T00:38:31;5.10;99.90
38973;DHT22;25333;50.762;4.470;2022-12-07T00:40:58;5.00;99.90
38973;DHT22;25333;50.762;4.470;2022-12-07T00:43:24;4.90;99.90
38973;DHT22;25333;50.762;4.470;2022-12-07T00:45:50;4.80;99.90
38973;DHT22;25333;50.762;4.470;2022-12-07T00:48:16;4.90;99.90
38973;DHT22;25333;50.762;4.470;2022-12-07T00:50:42;4.90;99.90
38973;DHT22;25333;50.762;4.470;2022-12-07T00:53:07;4.80;99.90
38973;DHT22;25333;50.762;4.470;2022-12-07T00:55:34;4.80;99.90
38973;DHT22;25333;50.762;4.470;2022-12-07T00:57:59;4.90;99.90
38973;DHT22;25333;50.762;4.470;2022-12-07T01:00:25;4.80;99.90
38973;DHT22;25333;50.762;4.470;2022-12-07T01:02:51;4.80;99.90
38973;DHT22;25333;50.762;4.470;2022-12-07T01:05:17;4.80;99.90
38973;DHT22;25333;50.762;4.470;2022-12-07T01:07:42;4.80;99.90
38973;DHT22;25333;50.762;4.470;2022-12-07T01:10:08;4.70;99.90
38973;DHT22;25333;50.762;4.470;2022-12-07T01:12:34;4.60;99.90
38973;DHT22;25333;50.762;4.470;2022-12-07T01:14:59;4.60;99.90
38973;DHT22;25333;50.762;4.470;2022-12-07T01:17:25;4.70;99.90
38973;DHT22;25333;50.762;4.470;2022-12-07T01:19:51;4.80;99.90
38973;DHT22;25333;50.762;4.470;2022-12-07T01:22:16;4.80;99.90
38973;DHT22;25333;50.762;4.470;2022-12-07T01:24:42;4.80;99.90
38973;DHT22;25333;50.762;4.470;2022-12-07T01:27:07;4.80;99.90
38973;DHT22;25333;50.762;4.470;2022-12-07T01:29:33;4.70;99.90
38973;DHT22;25333;50.762;4.470;2022-12-07T01:31:59;4.70;99.90
38973;DHT22;25333;50.762;4.470;2022-12-07T01:34:24;4.70;99.90
38973;DHT22;25333;50.762;4.470;2022-12-07T01:36:50;4.70;99.90
38973;DHT22;25333;50.762;4.470;2022-12-07T01:39:15;4.80;99.90
38973;DHT22;25333;50.762;4.470;2022-12-07T01:41:41;4.80;99.90
38973;DHT22;25333;50.762;4.470;2022-12-07T01:44:13;4.80;99.90
38973;DHT22;25333;50.762;4.470;2022-12-07T01:46:43;4.90;99.90
38973;DHT22;25333;50.762;4.470;2022-12-07T01:49:36;4.90;99.90
38973;DHT22;25333;50.762;4.470;2022-12-07T01:54:37;4.90;99.90
38973;DHT22;25333;50.762;4.470;2022-12-07T01:57:04;4.80;99.90
38973;DHT22;25333;50.762;4.470;2022-12-07T01:59:30;4.80;99.90
38973;DHT22;25333;50.762;4.470;2022-12-07T02:01:56;4.90;99.90
38973;DHT22;25333;50.762;4.470;2022-12-07T02:04:22;4.90;99.90
38973;DHT22;25333;50.762;4.470;2022-12-07T02:06:48;4.90;99.90
38973;DHT22;25333;50.762;4.470;2022-12-07T02:09:15;4.80;99.90
38973;DHT22;25333;50.762;4.470;2022-12-07T02:11:41;4.80;99.90
38973;DHT22;25333;50.762;4.470;2022-12-07T02:14:07;4.80;99.90
38973;DHT22;25333;50.762;4.470;2022-12-07T02:17:04;4.80;99.90
38973;DHT22;25333;50.762;4.470;2022-12-07T02:20:18;4.70;99.90
38973;DHT22;25333;50.762;4.470;2022-12-07T02:25:58;4.80;99.90
38973;DHT22;25333;50.762;4.470;2022-12-07T02:28:31;4.80;99.90
38973;DHT22;25333;50.762;4.470;2022-12-07T02:31:04;4.80;99.90
38973;DHT22;25333;50.762;4.470;2022-12-07T02:33:36;4.80;99.90
38973;DHT22;25333;50.762;4.470;2022-12-07T02:36:06;4.70;99.90
38973;DHT22;25333;50.762;4.470;2022-12-07T02:38:38;4.60;99.90
38973;DHT22;25333;50.762;4.470;2022-12-07T02:41:22;4.60;99.90
38973;DHT22;25333;50.762;4.470;2022-12-07T02:43:56;4.70;99.90
38973;DHT22;25333;50.762;4.470;2022-12-07T02:46:32;4.70;99.90
38973;DHT22;25333;50.762;4.470;2022-12-07T02:49:00;4.80;99.90
38973;DHT22;25333;50.762;4.470;2022-12-07T02:51:29;4.90;99.90
38973;DHT22;25333;50.762;4.470;2022-12-07T02:53:54;5.00;99.90
38973;DHT22;25333;50.762;4.470;2022-12-07T02:56:41;4.90;99.90
38973;DHT22;25333;50.762;4.470;2022-12-07T03:10:03;5.10;99.90
38973;DHT22;25333;50.762;4.470;2022-12-07T03:12:42;5.00;99.90
38973;DHT22;25333;50.762;4.470;2022-12-07T03:15:18;5.00;99.90
38973;DHT22;25333;50.762;4.470;2022-12-07T03:17:47;5.00;99.90
38973;DHT22;25333;50.762;4.470;2022-12-07T03:20:19;5.00;99.90
38973;DHT22;25333;50.762;4.470;2022-12-07T03:22:47;5.10;99.90
38973;DHT22;25333;50.762;4.470;2022-12-07T03:25:15;5.20;99.90
38973;DHT22;25333;50.762;4.470;2022-12-07T03:27:57;5.10;99.90
38973;DHT22;25333;50.762;4.470;2022-12-07T03:30:27;5.10;99.90
38973;DHT22;25333;50.762;4.470;2022-12-07T03:33:03;5.00;99.90
38973;DHT22;25333;50.762;4.470;2022-12-07T03:35:36;4.90;99.90
38973;DHT22;25333;50.762;4.470;2022-12-07T03:38:23;4.90;99.90
38973;DHT22;25333;50.762;4.470;2022-12-07T03:41:06;4.80;99.90
38973;DHT22;25333;50.762;4.470;2022-12-07T03:43:34;4.70;99.90
38973;DHT22;25333;50.762;4.470;2022-12-07T03:46:17;4.70;99.90
38973;DHT22;25333;50.762;4.470;2022-12-07T03:54:11;4.60;99.90
38973;DHT22;25333;50.762;4.470;2022-12-07T03:56:40;4.60;99.90
38973;DHT22;25333;50.762;4.470;2022-12-07T03:59:06;4.60;99.90
38973;DHT22;25333;50.762;4.470;2022-12-07T04:01:33;4.50;99.90
38973;DHT22;25333;50.762;4.470;2022-12-07T04:03:58;4.40;99.90
38973;DHT22;25333;50.762;4.470;2022-12-07T04:06:24;4.30;99.90
38973;DHT22;25333;50.762;4.470;2022-12-07T04:08:49;4.20;99.90
38973;DHT22;25333;50.762;4.470;2022-12-07T04:11:15;4.10;99.90
38973;DHT22;25333;50.762;4.470;2022-12-07T04:13:41;4.10;99.90
38973;DHT22;25333;50.762;4.470;2022-12-07T04:16:25;4.10;99.90
38973;DHT22;25333;50.762;4.470;2022-12-07T04:18:51;4.00;99.90
38973;DHT22;25333;50.762;4.470;2022-12-07T04:21:16;3.80;99.90
38973;DHT22;25333;50.762;4.470;2022-12-07T04:23:42;3.80;99.90
38973;DHT22;25333;50.762;4.470;2022-12-07T04:26:07;3.80;99.90
38973;DHT22;25333;50.762;4.470;2022-12-07T04:28:33;3.70;99.90
38973;DHT22;25333;50.762;4.470;2022-12-07T04:30:58;3.70;99.90
38973;DHT22;25333;50.762;4.470;2022-12-07T04:33:24;3.60;99.90
38973;DHT22;25333;50.762;4.470;2022-12-07T04:35:50;3.60;99.90
38973;DHT22;25333;50.762;4.470;2022-12-07T04:38:15;3.60;99.90
38973;DHT22;25333;50.762;4.470;2022-12-07T04:40:41;3.60;99.90
38973;DHT22;25333;50.762;4.470;2022-12-07T04:43:06;3.60;99.90
38973;DHT22;25333;50.762;4.470;2022-12-07T04:45:32;3.40;99.90
38973;DHT22;25333;50.762;4.470;2022-12-07T04:47:57;3.40;99.90
38973;DHT22;25333;50.762;4.470;2022-12-07T04:50:23;3.30;99.90
38973;DHT22;25333;50.762;4.470;2022-12-07T04:52:49;3.30;99.90
38973;DHT22;25333;50.762;4.470;2022-12-07T04:55:14;3.40;99.90
38973;DHT22;25333;50.762;4.470;2022-12-07T04:57:40;3.40;99.90
38973;DHT22;25333;50.762;4.470;2022-12-07T05:00:07;3.40;99.90
38973;DHT22;25333;50.762;4.470;2022-12-07T05:02:33;3.50;99.90
38973;DHT22;25333;50.762;4.470;2022-12-07T05:04:58;3.50;99.90
38973;DHT22;25333;50.762;4.470;2022-12-07T05:07:24;3.50;99.90
38973;DHT22;25333;50.762;4.470;2022-12-07T05:09:50;3.60;99.90
38973;DHT22;25333;50.762;4.470;2022-12-07T05:12:15;3.70;99.90
38973;DHT22;25333;50.762;4.470;2022-12-07T05:14:41;3.80;99.90
38973;DHT22;25333;50.762;4.470;2022-12-07T05:17:06;3.80;99.90
38973;DHT22;25333;50.762;4.470;2022-12-07T05:19:32;3.90;99.90
38973;DHT22;25333;50.762;4.470;2022-12-07T05:21:57;3.80;99.90
38973;DHT22;25333;50.762;4.470;2022-12-07T05:24:23;3.80;99.90
38973;DHT22;25333;50.762;4.470;2022-12-07T05:26:49;3.80;99.90
38973;DHT22;25333;50.762;4.470;2022-12-07T05:29:16;3.90;99.90
38973;DHT22;25333;50.762;4.470;2022-12-07T05:31:43;4.00;99.90
38973;DHT22;25333;50.762;4.470;2022-12-07T05:34:09;4.00;99.90
38973;DHT22;25333;50.762;4.470;2022-12-07T05:36:34;4.00;99.90
38973;DHT22;25333;50.762;4.470;2022-12-07T05:39:00;4.00;99.90
38973;DHT22;25333;50.762;4.470;2022-12-07T05:41:25;4.00;99.90
38973;DHT22;25333;50.762;4.470;2022-12-07T05:44:09;4.10;99.90
38973;DHT22;25333;50.762;4.470;2022-12-07T05:46:35;4.10;99.90
38973;DHT22;25333;50.762;4.470;2022-12-07T05:49:01;4.10;99.90
38973;DHT22;25333;50.762;4.470;2022-12-07T05:51:27;4.20;99.90
38973;DHT22;25333;50.762;4.470;2022-12-07T05:53:53;4.20;99.90
38973;DHT22;25333;50.762;4.470;2022-12-07T05:56:18;4.30;99.90
38973;DHT22;25333;50.762;4.470;2022-12-07T05:58:44;4.20;99.90
38973;DHT22;25333;50.762;4.470;2022-12-07T06:01:28;4.30;99.90
38973;DHT22;25333;50.762;4.470;2022-12-07T06:03:54;4.30;99.90
38973;DHT22;25333;50.762;4.470;2022-12-07T06:06:19;4.30;99.90
38973;DHT22;25333;50.762;4.470;2022-12-07T06:08:45;4.30;99.90
38973;DHT22;25333;50.762;4.470;2022-12-07T06:11:11;4.40;99.90
38973;DHT22;25333;50.762;4.470;2022-12-07T06:13:55;4.50;99.90
38973;DHT22;25333;50.762;4.470;2022-12-07T06:16:20;4.40;99.90
38973;DHT22;25333;50.762;4.470;2022-12-07T06:18:46;4.30;99.90
38973;DHT22;25333;50.762;4.470;2022-12-07T06:21:12;4.40;99.90
38973;DHT22;25333;50.762;4.470;2022-12-07T06:23:37;4.40;99.90
38973;DHT22;25333;50.762;4.470;2022-12-07T06:26:03;4.30;99.90
38973;DHT22;25333;50.762;4.470;2022-12-07T06:28:29;4.40;99.90
38973;DHT22;25333;50.762;4.470;2022-12-07T06:30:58;4.40;99.90
38973;DHT22;25333;50.762;4.470;2022-12-07T06:33:24;4.40;99.90
38973;DHT22;25333;50.762;4.470;2022-12-07T06:35:50;4.50;99.90
38973;DHT22;25333;50.762;4.470;2022-12-07T06:38:16;4.50;99.90
38973;DHT22;25333;50.762;4.470;2022-12-07T06:40:42;4.50;99.90
38973;DHT22;25333;50.762;4.470;2022-12-07T06:43:07;4.50;99.90
38973;DHT22;25333;50.762;4.470;2022-12-07T06:45:33;4.50;99.90
38973;DHT22;25333;50.762;4.470;2022-12-07T06:47:58;4.60;99.90
38973;DHT22;25333;50.762;4.470;2022-12-07T06:50:24;4.40;99.90
38973;DHT22;25333;50.762;4.470;2022-12-07T06:52:51;4.30;99.90
38973;DHT22;25333;50.762;4.470;2022-12-07T06:55:17;4.20;99.90
38973;DHT22;25333;50.762;4.470;2022-12-07T06:57:42;4.30;99.90
38973;DHT22;25333;50.762;4.470;2022-12-07T07:00:09;4.20;99.90
38973;DHT22;25333;50.762;4.470;2022-12-07T07:02:34;4.30;99.90
38973;DHT22;25333;50.762;4.470;2022-12-07T07:05:00;4.30;99.90
38973;DHT22;25333;50.762;4.470;2022-12-07T07:07:26;4.30;99.90
38973;DHT22;25333;50.762;4.470;2022-12-07T07:09:51;4.40;99.90
38973;DHT22;25333;50.762;4.470;2022-12-07T07:12:17;4.50;99.90
38973;DHT22;25333;50.762;4.470;2022-12-07T07:14:43;4.50;99.90
38973;DHT22;25333;50.762;4.470;2022-12-07T07:17:09;4.50;99.90
38973;DHT22;25333;50.762;4.470;2022-12-07T07:19:34;4.50;99.90
38973;DHT22;25333;50.762;4.470;2022-12-07T07:22:00;4.50;99.90
38973;DHT22;25333;50.762;4.470;2022-12-07T07:24:25;4.50;99.90
38973;DHT22;25333;50.762;4.470;2022-12-07T07:26:51;4.40;99.90
38973;DHT22;25333;50.762;4.470;2022-12-07T07:29:17;4.50;99.90
38973;DHT22;25333;50.762;4.470;2022-12-07T07:31:42;4.50;99.90
38973;DHT22;25333;50.762;4.470;2022-12-07T07:34:08;4.50;99.90
38973;DHT22;25333;50.762;4.470;2022-12-07T07:36:33;4.60;99.90
38973;DHT22;25333;50.762;4.470;2022-12-07T07:38:59;4.50;99.90
38973;DHT22;25333;50.762;4.470;2022-12-07T07:41:25;4.50;99.90
38973;DHT22;25333;50.762;4.470;2022-12-07T07:43:50;4.40;99.90
38973;DHT22;25333;50.762;4.470;2022-12-07T07:46:16;4.30;99.90
38973;DHT22;25333;50.762;4.470;2022-12-07T07:48:41;4.20;99.90
38973;DHT22;25333;50.762;4.470;2022-12-07T07:51:07;4.10;99.90
38973;DHT22;25333;50.762;4.470;2022-12-07T07:53:34;4.00;99.90
38973;DHT22;25333;50.762;4.470;2022-12-07T07:55:59;4.10;99.90
38973;DHT22;25333;50.762;4.470;2022-12-07T07:58:25;4.20;99.90
38973;DHT22;25333;50.762;4.470;2022-12-07T08:00:51;4.20;99.90
38973;DHT22;25333;50.762;4.470;2022-12-07T08:03:16;4.30;99.90
38973;DHT22;25333;50.762;4.470;2022-12-07T08:05:42;4.30;99.90
38973;DHT22;25333;50.762;4.470;2022-12-07T08:08:08;4.40;99.90
38973;DHT22;25333;50.762;4.470;2022-12-07T08:10:34;4.40;99.90
38973;DHT22;25333;50.762;4.470;2022-12-07T08:13:01;4.30;99.90
38973;DHT22;25333;50.762;4.470;2022-12-07T08:15:41;4.40;99.90
38973;DHT22;25333;50.762;4.470;2022-12-07T08:18:07;4.30;99.90
38973;DHT22;25333;50.762;4.470;2022-12-07T08:20:34;4.30;99.90
38973;DHT22;25333;50.762;4.470;2022-12-07T08:23:00;4.20;99.90
38973;DHT22;25333;50.762;4.470;2022-12-07T08:25:26;4.30;99.90
38973;DHT22;25333;50.762;4.470;2022-12-07T08:27:52;4.20;99.90
38973;DHT22;25333;50.762;4.470;2022-12-07T08:30:18;4.10;99.90
38973;DHT22;25333;50.762;4.470;2022-12-07T08:32:45;4.20;99.90
38973;DHT22;25333;50.762;4.470;2022-12-07T08:35:11;4.30;99.90
38973;DHT22;25333;50.762;4.470;2022-12-07T08:37:37;4.30;99.90
38973;DHT22;25333;50.762;4.470;2022-12-07T08:40:04;4.30;99.90
38973;DHT22;25333;50.762;4.470;2022-12-07T08:42:30;4.50;99.90
38973;DHT22;25333;50.762;4.470;2022-12-07T08:45:05;4.80;99.90
38973;DHT22;25333;50.762;4.470;2022-12-07T08:47:31;5.00;99.90
38973;DHT22;25333;50.762;4.470;2022-12-07T08:49:57;5.10;99.90
38973;DHT22;25333;50.762;4.470;2022-12-07T08:52:29;5.10;99.90
38973;DHT22;25333;50.762;4.470;2022-12-07T08:54:55;5.30;99.90
38973;DHT22;25333;50.762;4.470;2022-12-07T08:57:21;5.40;99.90
38973;DHT22;25333;50.762;4.470;2022-12-07T08:59:47;5.40;99.90
38973;DHT22;25333;50.762;4.470;2022-12-07T09:02:12;5.40;99.90
38973;DHT22;25333;50.762;4.470;2022-12-07T09:04:38;5.50;99.90
38973;DHT22;25333;50.762;4.470;2022-12-07T09:07:04;5.50;99.90
38973;DHT22;25333;50.762;4.470;2022-12-07T09:09:29;5.50;99.90
38973;DHT22;25333;50.762;4.470;2022-12-07T09:11:55;5.40;99.90
38973;DHT22;25333;50.762;4.470;2022-12-07T09:14:21;5.30;99.90
38973;DHT22;25333;50.762;4.470;2022-12-07T09:16:46;5.20;99.90
38973;DHT22;25333;50.762;4.470;2022-12-07T09:19:12;5.20;99.90
38973;DHT22;25333;50.762;4.470;2022-12-07T09:21:38;5.10;99.90
38973;DHT22;25333;50.762;4.470;2022-12-07T09:24:03;5.20;99.90
38973;DHT22;25333;50.762;4.470;2022-12-07T09:26:29;5.30;99.90
38973;DHT22;25333;50.762;4.470;2022-12-07T09:28:55;5.50;99.90
38973;DHT22;25333;50.762;4.470;2022-12-07T09:31:20;5.70;99.90
38973;DHT22;25333;50.762;4.470;2022-12-07T09:33:46;5.80;99.90
38973;DHT22;25333;50.762;4.470;2022-12-07T09:36:11;6.00;99.90
38973;DHT22;25333;50.762;4.470;2022-12-07T09:38:37;6.10;99.90
38973;DHT22;25333;50.762;4.470;2022-12-07T09:41:07;6.00;99.90
38973;DHT22;25333;50.762;4.470;2022-12-07T09:43:35;5.90;99.90
38973;DHT22;25333;50.762;4.470;2022-12-07T09:46:02;6.00;99.90
38973;DHT22;25333;50.762;4.470;2022-12-07T09:48:32;5.90;99.90
38973;DHT22;25333;50.762;4.470;2022-12-07T09:51:00;6.00;99.90
38973;DHT22;25333;50.762;4.470;2022-12-07T09:53:32;6.10;99.90
38973;DHT22;25333;50.762;4.470;2022-12-07T09:55:59;6.30;99.90
38973;DHT22;25333;50.762;4.470;2022-12-07T09:58:27;6.30;99.90
38973;DHT22;25333;50.762;4.470;2022-12-07T10:01:09;6.30;99.90
38973;DHT22;25333;50.762;4.470;2022-12-07T10:03:38;6.50;99.90
38973;DHT22;25333;50.762;4.470;2022-12-07T10:06:04;6.50;99.90
38973;DHT22;25333;50.762;4.470;2022-12-07T10:08:31;6.50;99.90
38973;DHT22;25333;50.762;4.470;2022-12-07T10:10:56;6.60;99.90
38973;DHT22;25333;50.762;4.470;2022-12-07T10:13:36;6.60;99.90
38973;DHT22;25333;50.762;4.470;2022-12-07T10:16:02;6.50;99.90
38973;DHT22;25333;50.762;4.470;2022-12-07T10:23:27;6.40;99.90
38973;DHT22;25333;50.762;4.470;2022-12-07T10:25:53;6.40;99.90
38973;DHT22;25333;50.762;4.470;2022-12-07T10:28:21;6.50;99.90
38973;DHT22;25333;50.762;4.470;2022-12-07T10:31:16;6.60;99.90
38973;DHT22;25333;50.762;4.470;2022-12-07T10:33:51;6.70;99.90
38973;DHT22;25333;50.762;4.470;2022-12-07T10:36:34;6.80;99.90
38973;DHT22;25333;50.762;4.470;2022-12-07T10:39:10;6.80;99.90
38973;DHT22;25333;50.762;4.470;2022-12-07T10:41:59;6.60;99.90
38973;DHT22;25333;50.762;4.470;2022-12-07T10:44:32;6.60;99.90
38973;DHT22;25333;50.762;4.470;2022-12-07T10:50:27;6.50;99.90
38973;DHT22;25333;50.762;4.470;2022-12-07T11:01:27;6.40;99.90
38973;DHT22;25333;50.762;4.470;2022-12-07T11:04:18;6.40;99.90
38973;DHT22;25333;50.762;4.470;2022-12-07T11:09:41;6.80;99.90
38973;DHT22;25333;50.762;4.470;2022-12-07T11:14:54;6.70;99.90
38973;DHT22;25333;50.762;4.470;2022-12-07T11:23:32;6.80;99.90
38973;DHT22;25333;50.762;4.470;2022-12-07T11:26:09;6.80;99.90
38973;DHT22;25333;50.762;4.470;2022-12-07T11:36:52;6.50;99.90
38973;DHT22;25333;50.762;4.470;2022-12-07T11:41:51;6.50;99.90
38973;DHT22;25333;50.762;4.470;2022-12-07T11:44:31;6.60;99.90
38973;DHT22;25333;50.762;4.470;2022-12-07T11:49:30;6.40;99.90
38973;DHT22;25333;50.762;4.470;2022-12-07T11:52:04;6.50;99.90
38973;DHT22;25333;50.762;4.470;2022-12-07T11:54:35;6.60;99.90
38973;DHT22;25333;50.762;4.470;2022-12-07T11:57:16;6.50;99.90
38973;DHT22;25333;50.762;4.470;2022-12-07T12:00:03;6.40;99.90
38973;DHT22;25333;50.762;4.470;2022-12-07T12:02:59;6.40;99.90
38973;DHT22;25333;50.762;4.470;2022-12-07T12:05:27;6.50;99.90
38973;DHT22;25333;50.762;4.470;2022-12-07T12:08:03;6.50;99.90
38973;DHT22;25333;50.762;4.470;2022-12-07T12:10:42;6.50;99.90
38973;DHT22;25333;50.762;4.470;2022-12-07T12:13:51;6.50;99.90
38973;DHT22;25333;50.762;4.470;2022-12-07T12:19:19;6.70;99.90
38973;DHT22;25333;50.762;4.470;2022-12-07T12:21:53;6.80;99.90
38973;DHT22;25333;50.762;4.470;2022-12-07T12:24:25;6.80;99.90
38973;DHT22;25333;50.762;4.470;2022-12-07T12:27:05;6.90;99.90
38973;DHT22;25333;50.762;4.470;2022-12-07T12:29:40;6.90;99.90
38973;DHT22;25333;50.762;4.470;2022-12-07T12:32:15;6.90;99.90
38973;DHT22;25333;50.762;4.470;2022-12-07T12:42:58;6.80;99.90
38973;DHT22;25333;50.762;4.470;2022-12-07T12:45:29;6.80;99.90
38973;DHT22;25333;50.762;4.470;2022-12-07T12:48:26;6.70;99.90
38973;DHT22;25333;50.762;4.470;2022-12-07T12:54:04;6.80;99.90
38973;DHT22;25333;50.762;4.470;2022-12-07T12:59:38;6.70;99.90
38973;DHT22;25333;50.762;4.470;2022-12-07T13:15:39;6.90;99.90
38973;DHT22;25333;50.762;4.470;2022-12-07T13:26:21;6.70;99.90
38973;DHT22;25333;50.762;4.470;2022-12-07T13:28:50;6.70;99.90
38973;DHT22;25333;50.762;4.470;2022-12-07T13:31:19;6.70;99.90
38973;DHT22;25333;50.762;4.470;2022-12-07T13:33:46;6.70;99.90
38973;DHT22;25333;50.762;4.470;2022-12-07T13:36:28;6.70;99.90
38973;DHT22;25333;50.762;4.470;2022-12-07T13:38:58;6.80;99.90
38973;DHT22;25333;50.762;4.470;2022-12-07T13:41:29;6.70;99.90
38973;DHT22;25333;50.762;4.470;2022-12-07T13:44:15;6.60;99.90
38973;DHT22;25333;50.762;4.470;2022-12-07T13:46:52;6.50;99.90
38973;DHT22;25333;50.762;4.470;2022-12-07T13:49:30;6.50;99.90
38973;DHT22;25333;50.762;4.470;2022-12-07T13:52:17;6.50;99.90
38973;DHT22;25333;50.762;4.470;2022-12-07T13:55:01;6.50;99.90
38973;DHT22;25333;50.762;4.470;2022-12-07T13:57:29;6.70;99.90
38973;DHT22;25333;50.762;4.470;2022-12-07T13:59:56;6.70;99.90
38973;DHT22;25333;50.762;4.470;2022-12-07T14:02:27;6.70;99.90
38973;DHT22;25333;50.762;4.470;2022-12-07T14:05:10;6.80;99.90
38973;DHT22;25333;50.762;4.470;2022-12-07T14:12:52;6.80;99.90
38973;DHT22;25333;50.762;4.470;2022-12-07T14:15:24;6.80;99.90
38973;DHT22;25333;50.762;4.470;2022-12-07T14:18:55;6.80;99.90
38973;DHT22;25333;50.762;4.470;2022-12-07T14:21:22;6.70;99.90
38973;DHT22;25333;50.762;4.470;2022-12-07T14:24:09;6.70;99.90
38973;DHT22;25333;50.762;4.470;2022-12-07T14:26:35;6.70;99.90
38973;DHT22;25333;50.762;4.470;2022-12-07T14:31:56;6.70;99.90
38973;DHT22;25333;50.762;4.470;2022-12-07T14:34:26;6.60;99.90
38973;DHT22;25333;50.762;4.470;2022-12-07T14:36:51;6.50;99.90
38973;DHT22;25333;50.762;4.470;2022-12-07T14:39:17;6.50;99.90
38973;DHT22;25333;50.762;4.470;2022-12-07T14:41:43;6.40;99.90
38973;DHT22;25333;50.762;4.470;2022-12-07T14:44:17;6.40;99.90
38973;DHT22;25333;50.762;4.470;2022-12-07T14:46:43;6.40;99.90
38973;DHT22;25333;50.762;4.470;2022-12-07T14:49:09;6.40;99.90
38973;DHT22;25333;50.762;4.470;2022-12-07T14:51:37;6.50;99.90
38973;DHT22;25333;50.762;4.470;2022-12-07T14:54:05;6.50;99.90
38973;DHT22;25333;50.762;4.470;2022-12-07T14:56:31;6.70;99.90
38973;DHT22;25333;50.762;4.470;2022-12-07T14:58:57;6.70;99.90
38973;DHT22;25333;50.762;4.470;2022-12-07T15:01:22;6.60;99.90
38973;DHT22;25333;50.762;4.470;2022-12-07T15:03:48;6.50;99.90
38973;DHT22;25333;50.762;4.470;2022-12-07T15:06:16;6.40;99.90
38973;DHT22;25333;50.762;4.470;2022-12-07T15:08:41;6.30;99.90
38973;DHT22;25333;50.762;4.470;2022-12-07T15:11:14;6.20;99.90
38973;DHT22;25333;50.762;4.470;2022-12-07T15:13:40;6.00;99.90
38973;DHT22;25333;50.762;4.470;2022-12-07T15:16:24;5.90;99.90
38973;DHT22;25333;50.762;4.470;2022-12-07T15:18:49;5.70;99.90
38973;DHT22;25333;50.762;4.470;2022-12-07T15:21:16;5.70;99.90
38973;DHT22;25333;50.762;4.470;2022-12-07T15:23:41;5.80;99.90
38973;DHT22;25333;50.762;4.470;2022-12-07T15:26:07;5.80;99.90
38973;DHT22;25333;50.762;4.470;2022-12-07T15:28:33;5.90;99.90
38973;DHT22;25333;50.762;4.470;2022-12-07T15:30:59;6.00;99.90
38973;DHT22;25333;50.762;4.470;2022-12-07T15:33:25;5.90;99.90
38973;DHT22;25333;50.762;4.470;2022-12-07T15:35:51;6.00;99.90
38973;DHT22;25333;50.762;4.470;2022-12-07T15:38:16;6.00;99.90
38973;DHT22;25333;50.762;4.470;2022-12-07T15:40:42;6.10;99.90
38973;DHT22;25333;50.762;4.470;2022-12-07T15:43:10;6.10;99.90
38973;DHT22;25333;50.762;4.470;2022-12-07T15:45:56;6.10;99.90
38973;DHT22;25333;50.762;4.470;2022-12-07T15:48:22;6.10;99.90
38973;DHT22;25333;50.762;4.470;2022-12-07T15:50:47;6.10;99.90
38973;DHT22;25333;50.762;4.470;2022-12-07T15:53:13;6.00;99.90
38973;DHT22;25333;50.762;4.470;2022-12-07T15:55:39;6.00;99.90
38973;DHT22;25333;50.762;4.470;2022-12-07T15:58:05;5.90;99.90
38973;DHT22;25333;50.762;4.470;2022-12-07T16:00:31;6.00;99.90
38973;DHT22;25333;50.762;4.470;2022-12-07T16:02:56;5.90;99.90
38973;DHT22;25333;50.762;4.470;2022-12-07T16:05:22;5.80;99.90
38973;DHT22;25333;50.762;4.470;2022-12-07T16:07:47;5.70;99.90
38973;DHT22;25333;50.762;4.470;2022-12-07T16:10:13;5.60;99.90
38973;DHT22;25333;50.762;4.470;2022-12-07T16:12:39;5.60;99.90
38973;DHT22;25333;50.762;4.470;2022-12-07T16:15:05;5.60;99.90
38973;DHT22;25333;50.762;4.470;2022-12-07T16:17:30;5.70;99.90
38973;DHT22;25333;50.762;4.470;2022-12-07T16:19:56;5.70;99.90
38973;DHT22;25333;50.762;4.470;2022-12-07T16:22:22;5.60;99.90
38973;DHT22;25333;50.762;4.470;2022-12-07T16:24:48;5.70;99.90
38973;DHT22;25333;50.762;4.470;2022-12-07T16:27:14;5.70;99.90
38973;DHT22;25333;50.762;4.470;2022-12-07T16:29:40;5.60;99.90
38973;DHT22;25333;50.762;4.470;2022-12-07T16:32:05;5.50;99.90
38973;DHT22;25333;50.762;4.470;2022-12-07T16:34:31;5.60;99.90
38973;DHT22;25333;50.762;4.470;2022-12-07T16:36:57;5.60;99.90
38973;DHT22;25333;50.762;4.470;2022-12-07T16:39:22;5.70;99.90
38973;DHT22;25333;50.762;4.470;2022-12-07T16:41:48;5.70;99.90
38973;DHT22;25333;50.762;4.470;2022-12-07T16:44:13;5.70;99.90
38973;DHT22;25333;50.762;4.470;2022-12-07T16:46:39;5.70;99.90
38973;DHT22;25333;50.762;4.470;2022-12-07T16:49:05;5.80;99.90
38973;DHT22;25333;50.762;4.470;2022-12-07T16:51:31;5.80;99.90
38973;DHT22;25333;50.762;4.470;2022-12-07T16:53:57;5.70;99.90
38973;DHT22;25333;50.762;4.470;2022-12-07T16:56:22;5.70;99.90
38973;DHT22;25333;50.762;4.470;2022-12-07T16:58:48;5.80;99.90
38973;DHT22;25333;50.762;4.470;2022-12-07T17:01:22;5.80;99.90
38973;DHT22;25333;50.762;4.470;2022-12-07T17:03:48;5.80;99.90
38973;DHT22;25333;50.762;4.470;2022-12-07T17:06:20;5.90;99.90
38973;DHT22;25333;50.762;4.470;2022-12-07T17:08:49;5.90;99.90
38973;DHT22;25333;50.762;4.470;2022-12-07T17:11:21;5.80;99.90
38973;DHT22;25333;50.762;4.470;2022-12-07T17:13:48;5.90;99.90
38973;DHT22;25333;50.762;4.470;2022-12-07T17:16:32;5.90;99.90
38973;DHT22;25333;50.762;4.470;2022-12-07T17:18:58;5.90;99.90
38973;DHT22;25333;50.762;4.470;2022-12-07T17:21:24;5.80;99.90
38973;DHT22;25333;50.762;4.470;2022-12-07T17:23:51;5.70;99.90
38973;DHT22;25333;50.762;4.470;2022-12-07T17:26:18;5.70;99.90
38973;DHT22;25333;50.762;4.470;2022-12-07T17:28:45;5.70;99.90
38973;DHT22;25333;50.762;4.470;2022-12-07T17:31:13;5.70;99.90
38973;DHT22;25333;50.762;4.470;2022-12-07T17:33:39;5.60;99.90
38973;DHT22;25333;50.762;4.470;2022-12-07T17:36:15;5.70;99.90
38973;DHT22;25333;50.762;4.470;2022-12-07T17:38:41;5.80;99.90
38973;DHT22;25333;50.762;4.470;2022-12-07T17:44:06;5.80;99.90
38973;DHT22;25333;50.762;4.470;2022-12-07T17:46:32;5.70;99.90
38973;DHT22;25333;50.762;4.470;2022-12-07T17:48:59;5.70;99.90
38973;DHT22;25333;50.762;4.470;2022-12-07T17:51:25;5.70;99.90
38973;DHT22;25333;50.762;4.470;2022-12-07T17:54:09;5.70;99.90